Time;durP1;ratioP1;P1;durP2;ratioP2;P2;SDS_P1;SDS_P2;PMS_P1;PMS_P2;Temp;Humidity;BMP_temperature;BMP_pressure;BME280_temperature;BME280_humidity;BME280_pressure;Samples;Min_cycle;Max_cycle;Signal;HPM_P1;HPM_P2
2023/12/30 00:00:27;;;;;;;6.00;2.90;;;;;;;;;;81034;275;3033156;-33
2023/12/30 00:03:44;;;;;;;6.20;2.90;;;;;;;;;;81054;275;3031633;-33
2023/12/30 00:06:23;;;;;;;6.30;2.60;;;;;;;;;;80996;275;3028881;-33
2023/12/30 00:09:00;;;;;;;6.40;3.20;;;;;;;;;;81042;274;3027331;-33
2023/12/30 00:11:39;;;;;;;6.80;3.20;;;;;;;;;;81000;275;3031801;-33
2023/12/30 00:14:20;;;;;;;6.30;3.00;;;;;;;;;;80981;275;3032391;-33
2023/12/30 00:16:59;;;;;;;5.20;3.00;;;;;;;;;;81023;271;3033604;-33
2023/12/30 00:19:42;;;;;;;6.30;3.20;;;;;;;;;;80994;275;3027773;-33
2023/12/30 00:22:18;;;;;;;6.80;2.90;;;;;;;;;;81038;270;3031836;-33
2023/12/30 00:24:55;;;;;;;6.90;2.90;;;;;;;;;;80970;275;3032256;-33
2023/12/30 00:27:33;;;;;;;5.70;3.00;;;;;;;;;;81053;275;3034819;-33
2023/12/30 00:30:15;;;;;;;5.60;3.20;;;;;;;;;;81026;282;3028049;-33
2023/12/30 00:32:54;;;;;;;5.70;2.90;;;;;;;;;;82289;275;3031498;-33
2023/12/30 00:35:32;;;;;;;5.90;2.90;;;;;;;;;;80981;275;3032096;-33
2023/12/30 00:38:13;;;;;;;6.40;3.00;;;;;;;;;;81031;275;3028200;-33
2023/12/30 00:41:01;;;;;;;5.90;2.80;;;;;;;;;;81042;275;3027971;-33
2023/12/30 00:43:41;;;;;;;5.90;2.90;;;;;;;;;;81014;282;3030700;-33
2023/12/30 00:46:19;;;;;;;5.50;3.00;;;;;;;;;;80995;274;3031479;-33
2023/12/30 00:48:56;;;;;;;6.10;2.90;;;;;;;;;;81515;279;3028230;-33
2023/12/30 00:51:33;;;;;;;6.00;2.90;;;;;;;;;;81729;275;3027749;-33
2023/12/30 00:54:12;;;;;;;4.70;2.70;;;;;;;;;;81002;275;3031529;-33
2023/12/30 00:56:49;;;;;;;6.00;2.80;;;;;;;;;;80971;275;3031251;-33
2023/12/30 00:59:26;;;;;;;7.10;3.20;;;;;;;;;;81010;275;3028743;-33
2023/12/30 01:02:02;;;;;;;6.30;2.70;;;;;;;;;;81055;275;3027798;-31
2023/12/30 01:04:41;;;;;;;7.00;2.80;;;;;;;;;;81055;275;3030598;-31
2023/12/30 01:07:23;;;;;;;5.60;3.00;;;;;;;;;;81016;274;3031210;-33
2023/12/30 01:10:01;;;;;;;5.80;2.80;;;;;;;;;;81017;275;3028342;-33
2023/12/30 01:12:38;;;;;;;6.00;3.00;;;;;;;;;;81025;282;3027593;-33
2023/12/30 01:15:15;;;;;;;6.00;2.90;;;;;;;;;;81004;274;3030898;-33
2023/12/30 01:17:54;;;;;;;6.10;2.90;;;;;;;;;;81006;274;3031928;-33
2023/12/30 01:20:33;;;;;;;5.80;2.80;;;;;;;;;;81038;274;3028430;-33
2023/12/30 01:23:12;;;;;;;5.10;2.80;;;;;;;;;;81064;274;3027908;-33
2023/12/30 01:25:48;;;;;;;6.00;2.80;;;;;;;;;;80992;274;3031265;-33
2023/12/30 01:28:26;;;;;;;5.90;2.70;;;;;;;;;;81071;274;3031492;-33
2023/12/30 01:31:04;;;;;;;5.50;3.10;;;;;;;;;;81025;274;3028257;-33
2023/12/30 01:33:42;;;;;;;5.80;3.00;;;;;;;;;;81017;271;3028245;-33
2023/12/30 01:36:22;;;;;;;6.20;3.20;;;;;;;;;;80786;282;3031410;-33
2023/12/30 01:39:00;;;;;;;5.00;2.80;;;;;;;;;;81069;274;3037310;-33
2023/12/30 01:41:36;;;;;;;5.10;2.70;;;;;;;;;;81015;274;3028898;-33
2023/12/30 01:44:13;;;;;;;5.40;3.00;;;;;;;;;;81043;274;3027416;-33
2023/12/30 01:46:54;;;;;;;5.90;2.70;;;;;;;;;;81001;275;3032201;-33
2023/12/30 01:49:31;;;;;;;6.30;2.80;;;;;;;;;;81008;271;3032099;-33
2023/12/30 01:52:10;;;;;;;7.30;3.00;;;;;;;;;;81037;274;3028198;-33
2023/12/30 01:54:47;;;;;;;5.50;2.70;;;;;;;;;;82505;283;3027765;-34
2023/12/30 01:57:25;;;;;;;5.90;3.00;;;;;;;;;;81346;275;3030814;-33
2023/12/30 02:00:03;;;;;;;5.90;2.90;;;;;;;;;;81029;282;3031640;-33
2023/12/30 02:02:39;;;;;;;5.40;2.90;;;;;;;;;;81343;274;3027886;-33
2023/12/30 02:05:19;;;;;;;5.80;2.80;;;;;;;;;;80977;274;3027601;-33
2023/12/30 02:08:00;;;;;;;5.70;2.80;;;;;;;;;;81017;274;3031230;-33
2023/12/30 02:10:37;;;;;;;5.50;2.60;;;;;;;;;;81007;274;3031802;-33
2023/12/30 02:13:19;;;;;;;6.20;3.20;;;;;;;;;;81033;274;3028649;-33
2023/12/30 02:15:58;;;;;;;6.00;3.10;;;;;;;;;;81046;274;3027408;-33
2023/12/30 02:18:35;;;;;;;5.70;3.00;;;;;;;;;;81005;272;3031328;-33
2023/12/30 02:21:11;;;;;;;5.80;3.10;;;;;;;;;;81023;279;3031214;-33
2023/12/30 02:23:56;;;;;;;5.20;2.60;;;;;;;;;;81007;274;3028682;-33
2023/12/30 02:26:33;;;;;;;5.80;2.90;;;;;;;;;;82563;271;3027597;-33
2023/12/30 02:29:10;;;;;;;6.50;2.70;;;;;;;;;;81028;283;3030646;-33
2023/12/30 02:31:47;;;;;;;5.10;2.90;;;;;;;;;;80974;285;3031809;-33
2023/12/30 02:34:25;;;;;;;5.80;2.80;;;;;;;;;;81029;274;3028960;-33
2023/12/30 02:37:04;;;;;;;5.10;2.80;;;;;;;;;;81041;275;3027490;-33
2023/12/30 02:39:41;;;;;;;5.30;2.80;;;;;;;;;;81025;274;3031429;-33
2023/12/30 02:42:18;;;;;;;5.40;2.70;;;;;;;;;;80994;274;3031503;-33
2023/12/30 02:44:56;;;;;;;5.40;2.80;;;;;;;;;;81061;271;3028177;-33
2023/12/30 02:47:33;;;;;;;5.10;2.60;;;;;;;;;;81041;275;3027265;-33
2023/12/30 02:50:11;;;;;;;5.80;2.90;;;;;;;;;;81026;274;3030727;-33
2023/12/30 02:52:48;;;;;;;5.90;3.00;;;;;;;;;;81089;275;3031410;-33
2023/12/30 02:55:26;;;;;;;5.20;2.90;;;;;;;;;;81030;274;3027771;-33
2023/12/30 02:58:05;;;;;;;5.50;2.90;;;;;;;;;;81016;274;3027793;-33
2023/12/30 03:00:43;;;;;;;5.90;2.80;;;;;;;;;;81013;274;3036877;-33
2023/12/30 03:03:20;;;;;;;5.20;2.80;;;;;;;;;;81023;271;3031468;-33
2023/12/30 03:06:02;;;;;;;5.80;2.80;;;;;;;;;;80988;275;3028358;-33
2023/12/30 03:08:41;;;;;;;5.60;2.90;;;;;;;;;;80994;275;3029863;-33
2023/12/30 03:11:18;;;;;;;5.70;2.80;;;;;;;;;;81014;275;3031297;-33
2023/12/30 03:13:57;;;;;;;5.20;2.90;;;;;;;;;;81028;275;3031728;-33
2023/12/30 03:16:33;;;;;;;6.70;3.00;;;;;;;;;;81029;275;3028638;-33
2023/12/30 03:19:10;;;;;;;5.80;2.90;;;;;;;;;;81016;275;3027332;-33
2023/12/30 03:21:47;;;;;;;5.30;2.80;;;;;;;;;;81044;275;3031456;-33
2023/12/30 03:24:25;;;;;;;5.10;2.70;;;;;;;;;;81000;282;3031431;-33
2023/12/30 03:27:03;;;;;;;6.70;2.70;;;;;;;;;;81006;275;3028139;-33
2023/12/30 03:29:44;;;;;;;5.60;3.00;;;;;;;;;;81005;275;3027402;-33
2023/12/30 03:32:23;;;;;;;6.20;2.80;;;;;;;;;;81005;274;3031276;-33
2023/12/30 03:34:59;;;;;;;5.10;2.70;;;;;;;;;;80999;274;3031900;-33
2023/12/30 03:37:36;;;;;;;5.40;2.70;;;;;;;;;;81037;274;3028245;-33
2023/12/30 03:40:18;;;;;;;5.10;2.90;;;;;;;;;;80985;271;3027735;-33
2023/12/30 03:42:55;;;;;;;5.00;2.60;;;;;;;;;;81036;274;3030719;-33
2023/12/30 03:45:32;;;;;;;4.90;2.50;;;;;;;;;;81033;274;3032386;-33
2023/12/30 03:48:13;;;;;;;5.60;2.70;;;;;;;;;;81024;274;3029894;-33
2023/12/30 03:50:52;;;;;;;5.70;2.70;;;;;;;;;;81002;283;3028374;-33
2023/12/30 03:53:33;;;;;;;4.60;2.60;;;;;;;;;;80997;279;3032205;-33
2023/12/30 03:56:11;;;;;;;5.20;2.50;;;;;;;;;;81025;274;3032638;-33
2023/12/30 03:58:50;;;;;;;5.50;2.60;;;;;;;;;;81893;275;3028493;-33
2023/12/30 04:01:27;;;;;;;4.40;2.30;;;;;;;;;;81002;275;3027286;-33
2023/12/30 04:04:04;;;;;;;5.20;2.60;;;;;;;;;;81044;275;3032377;-33
2023/12/30 04:07:02;;;;;;;5.30;2.50;;;;;;;;;;81045;275;3031663;-33
2023/12/30 04:09:40;;;;;;;5.70;2.50;;;;;;;;;;81031;275;3028591;-33
2023/12/30 04:12:17;;;;;;;5.00;2.40;;;;;;;;;;81048;275;3033822;-33
2023/12/30 04:14:53;;;;;;;4.90;2.50;;;;;;;;;;81050;271;3030812;-33
2023/12/30 04:17:29;;;;;;;4.60;2.40;;;;;;;;;;82203;279;3031771;-33
2023/12/30 04:20:09;;;;;;;5.60;2.60;;;;;;;;;;81005;274;3028628;-33
2023/12/30 04:22:45;;;;;;;5.00;2.40;;;;;;;;;;81520;275;3027540;-33
2023/12/30 04:25:23;;;;;;;5.10;2.50;;;;;;;;;;81044;275;3030421;-33
2023/12/30 04:28:02;;;;;;;5.70;2.50;;;;;;;;;;81017;275;3031710;-33
2023/12/30 04:30:40;;;;;;;5.30;2.50;;;;;;;;;;81034;275;3027825;-33
2023/12/30 04:33:16;;;;;;;4.90;2.70;;;;;;;;;;80995;275;3028147;-33
2023/12/30 04:35:54;;;;;;;4.70;2.20;;;;;;;;;;81030;283;3030674;-33
2023/12/30 04:38:33;;;;;;;4.60;2.50;;;;;;;;;;81064;274;3031862;-33
2023/12/30 04:41:13;;;;;;;4.50;2.30;;;;;;;;;;81004;275;3029130;-33
2023/12/30 04:43:52;;;;;;;5.20;2.20;;;;;;;;;;81033;275;3028278;-33
2023/12/30 04:46:28;;;;;;;5.10;2.20;;;;;;;;;;81031;275;3030559;-33
2023/12/30 04:49:05;;;;;;;5.20;2.40;;;;;;;;;;82475;279;3031400;-33
2023/12/30 04:51:44;;;;;;;4.20;2.20;;;;;;;;;;81591;275;3028618;-33
2023/12/30 04:54:20;;;;;;;4.60;2.20;;;;;;;;;;81227;275;3027798;-33
2023/12/30 04:56:57;;;;;;;4.70;2.20;;;;;;;;;;82454;278;3030325;-33
2023/12/30 04:59:34;;;;;;;4.90;2.10;;;;;;;;;;82401;278;3031753;-34
2023/12/30 05:02:11;;;;;;;6.20;2.30;;;;;;;;;;82385;275;3027691;-34
2023/12/30 05:04:49;;;;;;;5.60;2.10;;;;;;;;;;81893;278;3027092;-33
2023/12/30 05:07:25;;;;;;;4.40;1.90;;;;;;;;;;81009;283;3031025;-34
2023/12/30 05:10:06;;;;;;;5.10;2.00;;;;;;;;;;81015;275;3031457;-33
2023/12/30 05:12:42;;;;;;;4.70;2.20;;;;;;;;;;81140;282;3028052;-33
2023/12/30 05:15:20;;;;;;;4.50;2.10;;;;;;;;;;81015;282;3029667;-33
2023/12/30 05:17:58;;;;;;;4.30;2.20;;;;;;;;;;81018;274;3030689;-34
2023/12/30 05:20:35;;;;;;;5.00;2.10;;;;;;;;;;80993;271;3031875;-31
2023/12/30 05:23:17;;;;;;;4.60;2.00;;;;;;;;;;80993;274;3028761;-31
2023/12/30 05:25:55;;;;;;;4.40;2.10;;;;;;;;;;81026;274;3027534;-31
2023/12/30 05:28:31;;;;;;;4.30;2.10;;;;;;;;;;81040;271;3031118;-31
2023/12/30 05:31:08;;;;;;;4.60;2.10;;;;;;;;;;81005;274;3032920;-31
2023/12/30 05:33:44;;;;;;;4.20;1.90;;;;;;;;;;80969;275;3028378;-31
2023/12/30 05:36:21;;;;;;;4.40;2.00;;;;;;;;;;81016;274;3028084;-31
2023/12/30 05:39:00;;;;;;;4.80;2.00;;;;;;;;;;81013;274;3031330;-31
2023/12/30 05:41:43;;;;;;;4.60;1.90;;;;;;;;;;80984;274;3032127;-31
2023/12/30 05:44:19;;;;;;;4.70;1.90;;;;;;;;;;81031;274;3035982;-31
2023/12/30 05:47:01;;;;;;;4.30;1.80;;;;;;;;;;80995;274;3027383;-31
2023/12/30 05:49:41;;;;;;;4.40;1.90;;;;;;;;;;80982;275;3032040;-32
2023/12/30 05:52:18;;;;;;;3.70;1.60;;;;;;;;;;82460;271;3031451;-32
2023/12/30 05:54:54;;;;;;;4.10;1.80;;;;;;;;;;81925;275;3028203;-31
2023/12/30 05:57:34;;;;;;;4.70;1.90;;;;;;;;;;81668;275;3027577;-31
2023/12/30 06:00:15;;;;;;;4.00;1.90;;;;;;;;;;81065;274;3030934;-31
2023/12/30 06:02:56;;;;;;;4.40;1.90;;;;;;;;;;81151;282;3031923;-31
2023/12/30 06:05:35;;;;;;;4.00;1.70;;;;;;;;;;81431;271;3028110;-31
2023/12/30 06:08:14;;;;;;;4.30;1.80;;;;;;;;;;81049;274;3027436;-32
2023/12/30 06:10:53;;;;;;;4.40;1.70;;;;;;;;;;81065;274;3030619;-31
2023/12/30 06:13:31;;;;;;;3.50;1.50;;;;;;;;;;80990;275;3031935;-31
2023/12/30 06:16:10;;;;;;;3.70;1.80;;;;;;;;;;81084;274;3028252;-31
2023/12/30 06:18:46;;;;;;;3.40;1.70;;;;;;;;;;81326;271;3027146;-31
2023/12/30 06:21:25;;;;;;;4.30;1.70;;;;;;;;;;81490;275;3030875;-32
2023/12/30 06:24:02;;;;;;;3.30;1.50;;;;;;;;;;81009;282;3031696;-32
2023/12/30 06:26:42;;;;;;;3.80;1.50;;;;;;;;;;81025;275;3028646;-32
2023/12/30 06:29:19;;;;;;;3.10;1.40;;;;;;;;;;81018;275;3028005;-32
2023/12/30 06:31:55;;;;;;;3.60;1.40;;;;;;;;;;81027;275;3030679;-32
2023/12/30 06:34:32;;;;;;;3.00;1.30;;;;;;;;;;80950;275;3033056;-32
2023/12/30 06:37:08;;;;;;;4.10;1.30;;;;;;;;;;81018;271;3027860;-30
2023/12/30 06:39:45;;;;;;;3.20;1.40;;;;;;;;;;81030;275;3027907;-31
2023/12/30 06:42:21;;;;;;;3.60;1.40;;;;;;;;;;81101;283;3031050;-32
2023/12/30 06:44:57;;;;;;;3.10;1.40;;;;;;;;;;81007;283;3032254;-32
2023/12/30 06:47:33;;;;;;;3.20;1.30;;;;;;;;;;81009;275;3028012;-32
2023/12/30 06:50:14;;;;;;;3.70;1.30;;;;;;;;;;81019;275;3029993;-32
2023/12/30 06:52:56;;;;;;;3.10;1.20;;;;;;;;;;81692;271;3031301;-32
2023/12/30 06:55:32;;;;;;;2.90;1.30;;;;;;;;;;82089;280;3031658;-32
2023/12/30 06:58:20;;;;;;;2.90;1.20;;;;;;;;;;81016;275;3028801;-32
2023/12/30 07:01:01;;;;;;;2.90;1.20;;;;;;;;;;81018;275;3027931;-32
2023/12/30 07:03:37;;;;;;;3.10;1.20;;;;;;;;;;81029;275;3031169;-32
2023/12/30 07:06:17;;;;;;;2.90;1.20;;;;;;;;;;81059;274;3031798;-32
2023/12/30 07:08:54;;;;;;;2.90;1.10;;;;;;;;;;80975;274;3028182;-32
2023/12/30 07:11:30;;;;;;;3.30;1.30;;;;;;;;;;80986;271;3027348;-32
2023/12/30 07:14:06;;;;;;;3.20;1.30;;;;;;;;;;80984;274;3030750;-29
2023/12/30 07:16:43;;;;;;;2.80;1.20;;;;;;;;;;81034;274;3031489;-31
2023/12/30 07:19:19;;;;;;;3.20;1.20;;;;;;;;;;80986;275;3027929;-32
2023/12/30 07:21:55;;;;;;;2.60;1.10;;;;;;;;;;81018;283;3027641;-32
2023/12/30 07:24:31;;;;;;;3.60;1.20;;;;;;;;;;80987;274;3030933;-32
2023/12/30 07:27:08;;;;;;;2.60;1.10;;;;;;;;;;81018;274;3031246;-32
2023/12/30 07:29:44;;;;;;;3.20;1.10;;;;;;;;;;80991;274;3028237;-32
2023/12/30 07:32:20;;;;;;;2.40;1.10;;;;;;;;;;80972;274;3028055;-32
2023/12/30 07:34:57;;;;;;;3.30;1.30;;;;;;;;;;80944;274;3030735;-32
2023/12/30 07:37:34;;;;;;;2.60;1.10;;;;;;;;;;80993;274;3031517;-32
2023/12/30 07:40:14;;;;;;;2.50;1.30;;;;;;;;;;82047;278;3028236;-29
2023/12/30 07:42:51;;;;;;;3.30;1.20;;;;;;;;;;81227;274;3027200;-29
2023/12/30 07:45:27;;;;;;;3.00;1.10;;;;;;;;;;81007;275;3030854;-29
2023/12/30 07:48:05;;;;;;;2.70;1.10;;;;;;;;;;81026;275;3031492;-29
2023/12/30 07:50:41;;;;;;;2.70;1.00;;;;;;;;;;81020;271;3028044;-29
2023/12/30 07:53:19;;;;;;;3.00;1.00;;;;;;;;;;80987;275;3027778;-30
2023/12/30 07:55:56;;;;;;;3.10;1.10;;;;;;;;;;80953;275;3031269;-30
2023/12/30 07:58:32;;;;;;;2.60;1.20;;;;;;;;;;80956;275;3031150;-30
2023/12/30 08:01:08;;;;;;;3.80;1.10;;;;;;;;;;80975;274;3029436;-30
2023/12/30 08:03:44;;;;;;;2.60;1.00;;;;;;;;;;80986;274;3027499;-30
2023/12/30 08:06:22;;;;;;;4.00;1.30;;;;;;;;;;80992;274;3031165;-30
2023/12/30 08:08:58;;;;;;;2.50;1.00;;;;;;;;;;81011;275;3031514;-30
2023/12/30 08:11:35;;;;;;;3.20;1.20;;;;;;;;;;81008;275;3028024;-30
2023/12/30 08:14:31;;;;;;;3.60;1.10;;;;;;;;;;80972;275;3028411;-30
2023/12/30 08:17:07;;;;;;;4.00;1.10;;;;;;;;;;80996;275;3032295;-30
2023/12/30 08:19:43;;;;;;;4.80;1.20;;;;;;;;;;80970;275;3031250;-30
2023/12/30 08:22:19;;;;;;;2.80;1.20;;;;;;;;;;80980;271;3028847;-30
2023/12/30 08:24:55;;;;;;;3.10;1.20;;;;;;;;;;81021;274;3027866;-30
2023/12/30 08:27:32;;;;;;;3.60;1.20;;;;;;;;;;80974;271;3030999;-30
2023/12/30 08:30:11;;;;;;;3.30;1.20;;;;;;;;;;81031;275;3031198;-30
2023/12/30 08:32:47;;;;;;;4.30;1.20;;;;;;;;;;82385;283;3028615;-30
2023/12/30 08:35:23;;;;;;;4.40;1.30;;;;;;;;;;81405;275;3028880;-30
2023/12/30 08:38:01;;;;;;;3.40;1.20;;;;;;;;;;81040;274;3031325;-30
2023/12/30 08:40:37;;;;;;;3.90;1.20;;;;;;;;;;81017;275;3033632;-30
2023/12/30 08:43:14;;;;;;;3.60;1.10;;;;;;;;;;81015;274;3028862;-31
2023/12/30 08:45:52;;;;;;;4.00;1.10;;;;;;;;;;80934;275;3027785;-30
2023/12/30 08:48:28;;;;;;;3.10;1.10;;;;;;;;;;81039;275;3031184;-30
2023/12/30 08:51:05;;;;;;;4.60;1.30;;;;;;;;;;81060;271;3031909;-30
2023/12/30 08:53:41;;;;;;;2.80;1.10;;;;;;;;;;82071;283;3028458;-30
2023/12/30 08:56:18;;;;;;;3.20;1.00;;;;;;;;;;81007;275;3027380;-30
2023/12/30 08:58:56;;;;;;;3.30;1.10;;;;;;;;;;80999;274;3030856;-30
2023/12/30 09:01:35;;;;;;;3.60;1.20;;;;;;;;;;81028;275;3032083;-30
2023/12/30 09:04:12;;;;;;;3.20;1.10;;;;;;;;;;81006;271;3028769;-30
2023/12/30 09:06:52;;;;;;;3.00;0.90;;;;;;;;;;81043;275;3027584;-30
2023/12/30 09:09:30;;;;;;;2.70;1.00;;;;;;;;;;81017;274;3030449;-30
2023/12/30 09:12:09;;;;;;;2.90;1.00;;;;;;;;;;81032;275;3031576;-30
2023/12/30 09:14:45;;;;;;;2.40;0.90;;;;;;;;;;82393;274;3027930;-30
2023/12/30 09:17:22;;;;;;;2.90;1.10;;;;;;;;;;82281;276;3027308;-30
2023/12/30 09:19:58;;;;;;;3.60;1.10;;;;;;;;;;81011;274;3031046;-30
2023/12/30 09:22:38;;;;;;;3.40;0.90;;;;;;;;;;81024;274;3031863;-29
2023/12/30 09:25:14;;;;;;;2.10;0.80;;;;;;;;;;81007;274;3028226;-29
2023/12/30 09:27:51;;;;;;;2.90;1.00;;;;;;;;;;80957;274;3027297;-29
2023/12/30 09:30:27;;;;;;;2.90;0.90;;;;;;;;;;81022;275;3030369;-29
2023/12/30 09:33:07;;;;;;;2.50;0.90;;;;;;;;;;80989;274;3032012;-30
2023/12/30 09:35:46;;;;;;;2.90;0.90;;;;;;;;;;81860;282;3324467;-30
2023/12/30 09:38:25;;;;;;;2.90;0.80;;;;;;;;;;80906;283;3027940;-30
2023/12/30 09:41:09;;;;;;;2.80;0.90;;;;;;;;;;80997;275;3030529;-30
2023/12/30 09:43:48;;;;;;;2.90;1.00;;;;;;;;;;81297;274;3032031;-30
2023/12/30 09:46:26;;;;;;;2.40;0.90;;;;;;;;;;81009;275;3027886;-30
2023/12/30 09:49:05;;;;;;;3.00;1.10;;;;;;;;;;80956;271;3028540;-30
2023/12/30 09:51:42;;;;;;;3.10;1.10;;;;;;;;;;81052;283;3028857;-30
2023/12/30 09:54:27;;;;;;;3.30;1.20;;;;;;;;;;81015;282;3031707;-30
2023/12/30 09:57:21;;;;;;;3.00;1.00;;;;;;;;;;81086;275;3028486;-30
2023/12/30 09:59:59;;;;;;;3.30;0.90;;;;;;;;;;81063;275;3033679;-30
2023/12/30 10:02:38;;;;;;;3.60;1.10;;;;;;;;;;81014;275;3031391;-30
2023/12/30 10:05:18;;;;;;;4.00;0.90;;;;;;;;;;81000;275;3031781;-30
2023/12/30 10:07:55;;;;;;;3.50;1.10;;;;;;;;;;80989;275;3028155;-30
2023/12/30 10:10:44;;;;;;;2.60;0.90;;;;;;;;;;81010;275;3028124;-30
2023/12/30 10:13:25;;;;;;;2.40;0.90;;;;;;;;;;81346;275;3030783;-30
2023/12/30 10:16:06;;;;;;;3.50;1.10;;;;;;;;;;81029;275;3031381;-30
2023/12/30 10:18:45;;;;;;;2.40;0.90;;;;;;;;;;81493;275;3028140;-30
2023/12/30 10:21:23;;;;;;;3.70;1.10;;;;;;;;;;81018;278;3028043;-31
2023/12/30 10:24:06;;;;;;;3.00;0.90;;;;;;;;;;81062;274;3030472;-31
2023/12/30 10:26:43;;;;;;;2.70;1.00;;;;;;;;;;81169;275;3031784;-31
2023/12/30 10:29:23;;;;;;;3.10;1.10;;;;;;;;;;80997;274;3028130;-30
2023/12/30 10:32:08;;;;;;;3.20;1.00;;;;;;;;;;81070;275;3027235;-30
2023/12/30 10:34:49;;;;;;;4.00;1.20;;;;;;;;;;81070;275;3031087;-35
2023/12/30 10:37:29;;;;;;;3.60;1.20;;;;;;;;;;81067;272;3031304;-35
2023/12/30 10:40:10;;;;;;;3.40;1.30;;;;;;;;;;81015;272;3028068;-34
2023/12/30 10:42:48;;;;;;;3.60;1.60;;;;;;;;;;81048;275;3027640;-33
2023/12/30 10:45:28;;;;;;;4.10;1.30;;;;;;;;;;81027;271;3031782;-33
2023/12/30 10:48:12;;;;;;;4.10;1.40;;;;;;;;;;81019;280;3031267;-34
2023/12/30 10:50:53;;;;;;;4.30;1.80;;;;;;;;;;81230;278;3033374;-34
2023/12/30 10:53:35;;;;;;;4.50;2.00;;;;;;;;;;81445;275;3027885;-33
2023/12/30 10:56:22;;;;;;;4.80;1.90;;;;;;;;;;80981;275;3031428;-32
2023/12/30 10:59:04;;;;;;;4.20;2.20;;;;;;;;;;80964;275;3031347;-33
2023/12/30 11:01:42;;;;;;;5.90;2.50;;;;;;;;;;81472;271;3029238;-33
2023/12/30 11:04:19;;;;;;;5.00;2.20;;;;;;;;;;81118;271;3028008;-34
2023/12/30 11:07:04;;;;;;;5.80;2.40;;;;;;;;;;80980;276;3030678;-36
2023/12/30 11:09:42;;;;;;;6.00;2.80;;;;;;;;;;81065;276;3031223;-34
2023/12/30 11:12:21;;;;;;;4.70;2.50;;;;;;;;;;81125;276;3029020;-36
2023/12/30 11:14:57;;;;;;;4.30;2.50;;;;;;;;;;81047;283;3027134;-35
2023/12/30 11:17:42;;;;;;;4.50;2.60;;;;;;;;;;81190;276;3030725;-35
2023/12/30 11:20:32;;;;;;;5.60;3.10;;;;;;;;;;81035;276;3031171;-34
2023/12/30 11:23:12;;;;;;;6.40;3.10;;;;;;;;;;80995;276;3028136;-34
2023/12/30 11:25:50;;;;;;;6.40;2.60;;;;;;;;;;80995;272;3027742;-35
2023/12/30 11:28:34;;;;;;;5.10;2.50;;;;;;;;;;81042;272;3031378;-35
2023/12/30 11:31:13;;;;;;;4.50;2.40;;;;;;;;;;81014;276;3031176;-34
2023/12/30 11:33:50;;;;;;;4.70;2.50;;;;;;;;;;81034;272;3028487;-36
2023/12/30 11:36:33;;;;;;;5.60;2.50;;;;;;;;;;81089;276;3028139;-36
2023/12/30 11:39:12;;;;;;;4.50;2.10;;;;;;;;;;81063;284;3030514;-34
2023/12/30 11:41:51;;;;;;;5.00;2.30;;;;;;;;;;81043;276;3031700;-34
2023/12/30 11:44:29;;;;;;;4.20;2.10;;;;;;;;;;80990;276;3028670;-35
2023/12/30 11:47:12;;;;;;;5.40;2.30;;;;;;;;;;81207;275;3027610;-35
2023/12/30 11:49:49;;;;;;;4.70;2.10;;;;;;;;;;80997;283;3031264;-34
2023/12/30 11:52:29;;;;;;;4.70;2.40;;;;;;;;;;81013;275;3037479;-35
2023/12/30 11:55:10;;;;;;;5.80;2.10;;;;;;;;;;81019;278;3028811;-36
2023/12/30 11:57:51;;;;;;;5.10;2.10;;;;;;;;;;80960;276;3027657;-35
2023/12/30 12:00:31;;;;;;;4.20;1.80;;;;;;;;;;80927;272;3030922;-34
2023/12/30 12:03:08;;;;;;;4.20;1.90;;;;;;;;;;81056;276;3032120;-34
2023/12/30 12:05:47;;;;;;;4.00;2.00;;;;;;;;;;81115;275;3028037;-35
2023/12/30 12:08:23;;;;;;;3.80;1.80;;;;;;;;;;81112;275;3027908;-34
2023/12/30 12:11:02;;;;;;;3.70;1.70;;;;;;;;;;81040;275;3030553;-34
2023/12/30 12:13:40;;;;;;;5.40;1.80;;;;;;;;;;81145;275;3031811;-35
2023/12/30 12:16:18;;;;;;;4.50;1.50;;;;;;;;;;81043;275;3028214;-35
2023/12/30 12:18:55;;;;;;;3.80;1.50;;;;;;;;;;81070;275;3027876;-34
2023/12/30 12:21:31;;;;;;;4.40;1.60;;;;;;;;;;81020;275;3031345;-34
2023/12/30 12:24:09;;;;;;;5.00;1.60;;;;;;;;;;81049;271;3032125;-34
2023/12/30 12:26:45;;;;;;;3.30;1.30;;;;;;;;;;81154;275;3028483;-36
2023/12/30 12:29:22;;;;;;;3.50;1.60;;;;;;;;;;81011;275;3029393;-35
2023/12/30 12:32:03;;;;;;;4.60;1.50;;;;;;;;;;80986;278;3031249;-35
2023/12/30 12:34:41;;;;;;;3.70;1.60;;;;;;;;;;81057;275;3031808;-34
2023/12/30 12:37:21;;;;;;;3.80;1.50;;;;;;;;;;81072;271;3028466;-35
2023/12/30 12:40:00;;;;;;;3.60;1.30;;;;;;;;;;81055;271;3027684;-35
2023/12/30 12:42:37;;;;;;;6.20;1.60;;;;;;;;;;81049;275;3030809;-35
2023/12/30 12:45:15;;;;;;;3.70;1.50;;;;;;;;;;81072;275;3031175;-34
2023/12/30 12:47:55;;;;;;;4.00;1.50;;;;;;;;;;81080;283;3028200;-34
2023/12/30 12:50:34;;;;;;;4.20;1.60;;;;;;;;;;81184;275;3028175;-35
2023/12/30 12:53:11;;;;;;;3.60;1.60;;;;;;;;;;81010;284;3029376;-34
2023/12/30 12:55:47;;;;;;;4.10;1.50;;;;;;;;;;81094;275;3032142;-34
2023/12/30 12:58:23;;;;;;;4.30;1.70;;;;;;;;;;81176;271;3028365;-34
2023/12/30 13:00:59;;;;;;;5.20;1.70;;;;;;;;;;81068;275;3027690;-34
2023/12/30 13:03:35;;;;;;;3.80;1.80;;;;;;;;;;81056;283;3030734;-34
2023/12/30 13:06:13;;;;;;;4.00;1.60;;;;;;;;;;81113;275;3032401;-34
2023/12/30 13:08:55;;;;;;;5.10;1.80;;;;;;;;;;81726;275;3028739;-34
2023/12/30 13:11:36;;;;;;;4.00;1.60;;;;;;;;;;81177;275;3027405;-34
2023/12/30 13:14:12;;;;;;;4.00;1.70;;;;;;;;;;81104;271;3037942;-34
2023/12/30 13:16:49;;;;;;;3.90;1.70;;;;;;;;;;81179;275;3031288;-34
2023/12/30 13:19:28;;;;;;;3.70;1.60;;;;;;;;;;81135;282;3028144;-34
2023/12/30 13:22:06;;;;;;;3.70;1.70;;;;;;;;;;80988;275;3027718;-34
2023/12/30 13:24:46;;;;;;;4.20;1.70;;;;;;;;;;81016;275;3031958;-34
2023/12/30 13:27:23;;;;;;;3.40;1.50;;;;;;;;;;81021;275;3032673;-34
2023/12/30 13:30:01;;;;;;;4.30;1.70;;;;;;;;;;81150;275;3029128;-34
2023/12/30 13:32:42;;;;;;;4.70;1.60;;;;;;;;;;81002;279;3027795;-34
2023/12/30 13:35:21;;;;;;;4.40;1.60;;;;;;;;;;81020;275;3030509;-34
2023/12/30 13:37:58;;;;;;;3.80;1.70;;;;;;;;;;81018;271;3032381;-34
2023/12/30 13:40:37;;;;;;;3.80;1.50;;;;;;;;;;81032;271;3028549;-34
2023/12/30 13:43:16;;;;;;;3.70;1.60;;;;;;;;;;81007;276;3027352;-34
2023/12/30 13:45:56;;;;;;;4.70;1.70;;;;;;;;;;81367;275;3031083;-34
2023/12/30 13:49:08;;;;;;;4.20;1.70;;;;;;;;;;80990;276;3033148;-34
2023/12/30 13:51:44;;;;;;;4.10;1.60;;;;;;;;;;81002;275;3028576;-34
2023/12/30 13:54:23;;;;;;;3.80;1.50;;;;;;;;;;80957;275;3027374;-34
2023/12/30 13:57:12;;;;;;;4.00;1.50;;;;;;;;;;80984;275;3030516;-34
2023/12/30 13:59:51;;;;;;;3.80;1.50;;;;;;;;;;80987;275;3033582;-34
2023/12/30 14:02:37;;;;;;;3.40;1.40;;;;;;;;;;80972;283;3028918;-34
2023/12/30 14:05:18;;;;;;;4.70;1.30;;;;;;;;;;81108;282;3032581;-34
2023/12/30 14:07:56;;;;;;;4.20;1.60;;;;;;;;;;81206;271;3030987;-34
2023/12/30 14:10:33;;;;;;;3.00;1.40;;;;;;;;;;81657;282;3032171;-34
2023/12/30 14:13:09;;;;;;;4.00;1.40;;;;;;;;;;80985;279;3027902;-34
2023/12/30 14:15:49;;;;;;;3.90;1.50;;;;;;;;;;81781;282;3033930;-34
2023/12/30 14:18:27;;;;;;;3.20;1.40;;;;;;;;;;81029;282;3030826;-34
2023/12/30 14:21:04;;;;;;;3.60;1.40;;;;;;;;;;81028;275;3031740;-34
2023/12/30 14:23:42;;;;;;;3.90;1.50;;;;;;;;;;81341;283;3029005;-34
2023/12/30 14:26:22;;;;;;;4.00;1.40;;;;;;;;;;81019;275;3027420;-34
2023/12/30 14:28:58;;;;;;;4.20;1.40;;;;;;;;;;81016;275;3031202;-34
2023/12/30 14:31:35;;;;;;;3.90;1.30;;;;;;;;;;81010;283;3032445;-34
2023/12/30 14:34:14;;;;;;;3.60;1.40;;;;;;;;;;80980;275;3029027;-34
2023/12/30 14:36:53;;;;;;;3.90;1.50;;;;;;;;;;81081;271;3028424;-34
2023/12/30 14:39:29;;;;;;;4.10;1.40;;;;;;;;;;81028;275;3030909;-34
2023/12/30 14:42:07;;;;;;;4.00;1.40;;;;;;;;;;80989;275;3032003;-34
2023/12/30 14:44:44;;;;;;;3.70;1.50;;;;;;;;;;81139;275;3027946;-34
2023/12/30 14:47:21;;;;;;;3.40;1.40;;;;;;;;;;81158;273;3027293;-34
2023/12/30 14:50:00;;;;;;;3.30;1.20;;;;;;;;;;81185;282;3030077;-34
2023/12/30 14:52:37;;;;;;;3.60;1.50;;;;;;;;;;81903;281;3031288;-34
2023/12/30 14:55:15;;;;;;;3.60;1.50;;;;;;;;;;81155;273;3029356;-34
2023/12/30 14:57:53;;;;;;;4.10;1.40;;;;;;;;;;81207;274;3028201;-34
2023/12/30 15:00:28;;;;;;;3.90;1.40;;;;;;;;;;81212;273;3032118;-34
2023/12/30 15:03:05;;;;;;;3.50;1.40;;;;;;;;;;81179;282;3031574;-34
2023/12/30 15:05:41;;;;;;;4.40;1.70;;;;;;;;;;81489;281;3028945;-34
2023/12/30 15:08:17;;;;;;;3.40;1.30;;;;;;;;;;81201;274;3027311;-34
2023/12/30 15:10:54;;;;;;;3.60;1.30;;;;;;;;;;81193;282;3030627;-34
2023/12/30 15:13:30;;;;;;;4.20;1.30;;;;;;;;;;81195;273;3032001;-34
2023/12/30 15:16:07;;;;;;;4.20;1.60;;;;;;;;;;82123;281;3028075;-34
2023/12/30 15:18:45;;;;;;;4.30;1.60;;;;;;;;;;81320;270;3027703;-34
2023/12/30 15:21:21;;;;;;;3.40;1.30;;;;;;;;;;81204;281;3030815;-34
2023/12/30 15:23:59;;;;;;;4.30;1.40;;;;;;;;;;81221;291;3032023;-34
2023/12/30 15:26:35;;;;;;;3.90;1.50;;;;;;;;;;81196;270;3028332;-34
2023/12/30 15:29:11;;;;;;;3.90;1.50;;;;;;;;;;81240;273;3027907;-34
2023/12/30 15:31:47;;;;;;;3.50;1.50;;;;;;;;;;81249;282;3030540;-34
2023/12/30 15:34:23;;;;;;;3.70;1.50;;;;;;;;;;81214;281;3031810;-34
2023/12/30 15:36:59;;;;;;;3.90;1.60;;;;;;;;;;81222;281;3027855;-34